sensor_id;sensor_type;location;lat;lon;timestamp;P1;durP1;ratioP1;P2;durP2;ratioP2
801;SDS011;383;48.766;9.270;2023-02-28T00:00:19;7.45;;;3.28;;
801;SDS011;383;48.766;9.270;2023-02-28T00:02:47;7.30;;;2.95;;
801;SDS011;383;48.766;9.270;2023-02-28T00:05:17;5.65;;;3.17;;
801;SDS011;383;48.766;9.270;2023-02-28T00:07:45;5.05;;;2.70;;
801;SDS011;383;48.766;9.270;2023-02-28T00:10:13;6.00;;;3.00;;
801;SDS011;383;48.766;9.270;2023-02-28T00:12:45;3.10;;;2.90;;
801;SDS011;383;48.766;9.270;2023-02-28T00:15:13;4.90;;;3.38;;
801;SDS011;383;48.766;9.270;2023-02-28T00:17:40;3.85;;;3.00;;
801;SDS011;383;48.766;9.270;2023-02-28T00:20:08;5.28;;;3.10;;
801;SDS011;383;48.766;9.270;2023-02-28T00:22:37;3.65;;;2.75;;
801;SDS011;383;48.766;9.270;2023-02-28T00:25:04;5.90;;;2.72;;
801;SDS011;383;48.766;9.270;2023-02-28T00:27:33;3.50;;;2.47;;
801;SDS011;383;48.766;9.270;2023-02-28T00:30:00;8.40;;;3.17;;
801;SDS011;383;48.766;9.270;2023-02-28T00:32:28;6.85;;;3.40;;
801;SDS011;383;48.766;9.270;2023-02-28T00:34:55;4.05;;;2.55;;
801;SDS011;383;48.766;9.270;2023-02-28T00:37:22;8.35;;;3.35;;
801;SDS011;383;48.766;9.270;2023-02-28T00:39:49;3.85;;;2.70;;
801;SDS011;383;48.766;9.270;2023-02-28T00:42:15;6.10;;;2.47;;
801;SDS011;383;48.766;9.270;2023-02-28T00:44:42;9.68;;;3.17;;
801;SDS011;383;48.766;9.270;2023-02-28T00:47:09;3.65;;;2.65;;
801;SDS011;383;48.766;9.270;2023-02-28T00:49:37;3.90;;;2.50;;
801;SDS011;383;48.766;9.270;2023-02-28T00:52:04;4.55;;;2.83;;
801;SDS011;383;48.766;9.270;2023-02-28T00:54:30;7.28;;;3.03;;
801;SDS011;383;48.766;9.270;2023-02-28T00:56:57;5.57;;;3.75;;
801;SDS011;383;48.766;9.270;2023-02-28T00:59:25;2.67;;;2.38;;
801;SDS011;383;48.766;9.270;2023-02-28T01:01:51;3.13;;;2.70;;
801;SDS011;383;48.766;9.270;2023-02-28T01:04:18;7.00;;;3.78;;
801;SDS011;383;48.766;9.270;2023-02-28T01:06:46;5.10;;;2.70;;
801;SDS011;383;48.766;9.270;2023-02-28T01:09:13;5.95;;;2.40;;
801;SDS011;383;48.766;9.270;2023-02-28T01:11:40;6.63;;;2.95;;
801;SDS011;383;48.766;9.270;2023-02-28T01:14:10;4.65;;;2.88;;
801;SDS011;383;48.766;9.270;2023-02-28T01:16:38;4.00;;;2.75;;
801;SDS011;383;48.766;9.270;2023-02-28T01:19:05;6.15;;;3.05;;
801;SDS011;383;48.766;9.270;2023-02-28T01:21:32;5.05;;;3.20;;
801;SDS011;383;48.766;9.270;2023-02-28T01:24:02;3.20;;;2.50;;
801;SDS011;383;48.766;9.270;2023-02-28T01:26:31;4.45;;;3.05;;
801;SDS011;383;48.766;9.270;2023-02-28T01:28:58;7.18;;;3.38;;
801;SDS011;383;48.766;9.270;2023-02-28T01:31:25;5.10;;;3.00;;
801;SDS011;383;48.766;9.270;2023-02-28T01:33:51;6.47;;;3.10;;
801;SDS011;383;48.766;9.270;2023-02-28T01:36:19;7.40;;;2.97;;
801;SDS011;383;48.766;9.270;2023-02-28T01:38:48;5.28;;;2.75;;
801;SDS011;383;48.766;9.270;2023-02-28T01:41:17;9.52;;;3.58;;
801;SDS011;383;48.766;9.270;2023-02-28T01:43:53;4.32;;;3.28;;
801;SDS011;383;48.766;9.270;2023-02-28T01:46:21;5.80;;;3.30;;
801;SDS011;383;48.766;9.270;2023-02-28T01:48:50;3.60;;;2.83;;
801;SDS011;383;48.766;9.270;2023-02-28T01:51:18;3.60;;;2.80;;
801;SDS011;383;48.766;9.270;2023-02-28T01:53:49;7.65;;;3.70;;
801;SDS011;383;48.766;9.270;2023-02-28T01:56:21;5.25;;;3.25;;
801;SDS011;383;48.766;9.270;2023-02-28T01:58:50;5.05;;;3.50;;
801;SDS011;383;48.766;9.270;2023-02-28T02:01:18;7.80;;;3.03;;
801;SDS011;383;48.766;9.270;2023-02-28T02:03:47;8.55;;;3.75;;
801;SDS011;383;48.766;9.270;2023-02-28T02:06:20;6.38;;;3.80;;
801;SDS011;383;48.766;9.270;2023-02-28T02:08:47;8.90;;;3.25;;
801;SDS011;383;48.766;9.270;2023-02-28T02:11:13;6.78;;;3.50;;
801;SDS011;383;48.766;9.270;2023-02-28T02:13:55;7.38;;;3.70;;
801;SDS011;383;48.766;9.270;2023-02-28T02:16:48;6.05;;;3.40;;
801;SDS011;383;48.766;9.270;2023-02-28T02:19:29;7.65;;;3.53;;
801;SDS011;383;48.766;9.270;2023-02-28T02:22:19;6.47;;;4.20;;
801;SDS011;383;48.766;9.270;2023-02-28T02:27:58;5.70;;;3.22;;
801;SDS011;383;48.766;9.270;2023-02-28T02:30:50;5.30;;;3.35;;
801;SDS011;383;48.766;9.270;2023-02-28T02:33:42;5.30;;;3.72;;
801;SDS011;383;48.766;9.270;2023-02-28T02:36:29;4.97;;;3.28;;
801;SDS011;383;48.766;9.270;2023-02-28T02:39:02;8.82;;;3.88;;
801;SDS011;383;48.766;9.270;2023-02-28T02:41:36;6.00;;;3.42;;
801;SDS011;383;48.766;9.270;2023-02-28T02:44:10;10.35;;;4.07;;
801;SDS011;383;48.766;9.270;2023-02-28T02:46:41;6.32;;;3.40;;
801;SDS011;383;48.766;9.270;2023-02-28T02:49:12;7.38;;;3.55;;
801;SDS011;383;48.766;9.270;2023-02-28T02:51:46;8.77;;;3.65;;
801;SDS011;383;48.766;9.270;2023-02-28T02:54:15;5.25;;;3.28;;
801;SDS011;383;48.766;9.270;2023-02-28T02:56:47;4.10;;;3.45;;
801;SDS011;383;48.766;9.270;2023-02-28T02:59:16;8.68;;;4.90;;
801;SDS011;383;48.766;9.270;2023-02-28T03:01:46;13.52;;;4.10;;
801;SDS011;383;48.766;9.270;2023-02-28T03:04:16;10.55;;;3.65;;
801;SDS011;383;48.766;9.270;2023-02-28T03:06:49;9.68;;;4.38;;
801;SDS011;383;48.766;9.270;2023-02-28T03:09:19;6.53;;;4.45;;
801;SDS011;383;48.766;9.270;2023-02-28T03:11:46;7.07;;;3.70;;
801;SDS011;383;48.766;9.270;2023-02-28T03:14:21;7.68;;;4.50;;
801;SDS011;383;48.766;9.270;2023-02-28T03:17:00;5.05;;;3.40;;
801;SDS011;383;48.766;9.270;2023-02-28T03:19:46;7.70;;;4.05;;
801;SDS011;383;48.766;9.270;2023-02-28T03:22:27;10.23;;;4.10;;
801;SDS011;383;48.766;9.270;2023-02-28T03:25:06;12.48;;;4.50;;
801;SDS011;383;48.766;9.270;2023-02-28T03:27:36;7.30;;;3.70;;
801;SDS011;383;48.766;9.270;2023-02-28T03:30:09;8.55;;;3.75;;
801;SDS011;383;48.766;9.270;2023-02-28T03:32:42;5.32;;;3.80;;
801;SDS011;383;48.766;9.270;2023-02-28T03:35:16;8.85;;;3.92;;
801;SDS011;383;48.766;9.270;2023-02-28T03:37:49;7.15;;;4.20;;
801;SDS011;383;48.766;9.270;2023-02-28T03:40:19;9.32;;;4.28;;
801;SDS011;383;48.766;9.270;2023-02-28T03:42:50;7.75;;;4.30;;
801;SDS011;383;48.766;9.270;2023-02-28T03:45:21;11.27;;;4.70;;
801;SDS011;383;48.766;9.270;2023-02-28T03:47:52;8.68;;;4.00;;
801;SDS011;383;48.766;9.270;2023-02-28T03:50:22;13.25;;;5.05;;
801;SDS011;383;48.766;9.270;2023-02-28T03:52:55;6.53;;;3.83;;
801;SDS011;383;48.766;9.270;2023-02-28T03:55:30;8.00;;;4.45;;
801;SDS011;383;48.766;9.270;2023-02-28T03:58:01;8.25;;;4.78;;
801;SDS011;383;48.766;9.270;2023-02-28T04:00:35;6.45;;;4.05;;
801;SDS011;383;48.766;9.270;2023-02-28T04:03:05;14.85;;;5.22;;
801;SDS011;383;48.766;9.270;2023-02-28T04:05:32;10.57;;;4.53;;
801;SDS011;383;48.766;9.270;2023-02-28T04:08:11;12.63;;;4.90;;
801;SDS011;383;48.766;9.270;2023-02-28T04:10:37;6.60;;;3.80;;
801;SDS011;383;48.766;9.270;2023-02-28T04:13:05;9.20;;;4.75;;
801;SDS011;383;48.766;9.270;2023-02-28T04:15:31;7.28;;;4.43;;
801;SDS011;383;48.766;9.270;2023-02-28T04:17:58;8.25;;;4.60;;
801;SDS011;383;48.766;9.270;2023-02-28T04:20:25;11.38;;;4.93;;
801;SDS011;383;48.766;9.270;2023-02-28T04:22:51;9.48;;;5.47;;
801;SDS011;383;48.766;9.270;2023-02-28T04:25:19;16.30;;;5.03;;
801;SDS011;383;48.766;9.270;2023-02-28T04:27:46;6.22;;;4.35;;
801;SDS011;383;48.766;9.270;2023-02-28T04:30:13;6.00;;;3.95;;
801;SDS011;383;48.766;9.270;2023-02-28T04:32:39;6.75;;;4.28;;
801;SDS011;383;48.766;9.270;2023-02-28T04:35:06;5.88;;;4.07;;
801;SDS011;383;48.766;9.270;2023-02-28T04:37:34;11.32;;;5.95;;
801;SDS011;383;48.766;9.270;2023-02-28T04:40:01;6.50;;;5.10;;
801;SDS011;383;48.766;9.270;2023-02-28T04:42:30;8.25;;;4.95;;
801;SDS011;383;48.766;9.270;2023-02-28T04:45:00;10.50;;;4.88;;
801;SDS011;383;48.766;9.270;2023-02-28T04:47:27;7.85;;;4.68;;
801;SDS011;383;48.766;9.270;2023-02-28T04:49:54;6.78;;;4.60;;
801;SDS011;383;48.766;9.270;2023-02-28T04:52:21;7.82;;;4.72;;
801;SDS011;383;48.766;9.270;2023-02-28T04:54:48;9.60;;;4.68;;
801;SDS011;383;48.766;9.270;2023-02-28T04:57:14;6.65;;;4.50;;
801;SDS011;383;48.766;9.270;2023-02-28T04:59:43;9.52;;;5.60;;
801;SDS011;383;48.766;9.270;2023-02-28T05:02:09;8.13;;;5.10;;
801;SDS011;383;48.766;9.270;2023-02-28T05:04:36;9.43;;;5.53;;
801;SDS011;383;48.766;9.270;2023-02-28T05:07:03;13.15;;;4.82;;
801;SDS011;383;48.766;9.270;2023-02-28T05:09:29;11.07;;;5.03;;
801;SDS011;383;48.766;9.270;2023-02-28T05:11:57;9.20;;;4.93;;
801;SDS011;383;48.766;9.270;2023-02-28T05:14:24;9.60;;;5.65;;
801;SDS011;383;48.766;9.270;2023-02-28T05:16:52;7.75;;;5.13;;
801;SDS011;383;48.766;9.270;2023-02-28T05:19:19;12.20;;;5.55;;
801;SDS011;383;48.766;9.270;2023-02-28T05:21:49;12.82;;;6.32;;
801;SDS011;383;48.766;9.270;2023-02-28T05:24:17;10.65;;;5.88;;
801;SDS011;383;48.766;9.270;2023-02-28T05:26:47;12.90;;;6.45;;
801;SDS011;383;48.766;9.270;2023-02-28T05:29:15;12.18;;;5.95;;
801;SDS011;383;48.766;9.270;2023-02-28T05:31:42;11.90;;;6.10;;
801;SDS011;383;48.766;9.270;2023-02-28T05:34:10;13.73;;;5.55;;
801;SDS011;383;48.766;9.270;2023-02-28T05:36:37;10.43;;;5.50;;
801;SDS011;383;48.766;9.270;2023-02-28T05:39:05;8.70;;;5.65;;
801;SDS011;383;48.766;9.270;2023-02-28T05:41:32;9.38;;;5.28;;
801;SDS011;383;48.766;9.270;2023-02-28T05:44:00;13.40;;;6.80;;
801;SDS011;383;48.766;9.270;2023-02-28T05:46:26;11.27;;;5.57;;
801;SDS011;383;48.766;9.270;2023-02-28T05:48:53;10.23;;;5.28;;
801;SDS011;383;48.766;9.270;2023-02-28T05:51:22;14.45;;;5.35;;
801;SDS011;383;48.766;9.270;2023-02-28T05:53:48;10.60;;;5.60;;
801;SDS011;383;48.766;9.270;2023-02-28T05:56:15;10.07;;;5.78;;
801;SDS011;383;48.766;9.270;2023-02-28T05:58:42;18.30;;;6.53;;
801;SDS011;383;48.766;9.270;2023-02-28T06:01:21;11.02;;;5.25;;
801;SDS011;383;48.766;9.270;2023-02-28T06:03:50;9.38;;;6.18;;
801;SDS011;383;48.766;9.270;2023-02-28T06:06:17;18.77;;;5.80;;
801;SDS011;383;48.766;9.270;2023-02-28T06:08:45;9.55;;;5.65;;
801;SDS011;383;48.766;9.270;2023-02-28T06:11:11;10.02;;;5.82;;
801;SDS011;383;48.766;9.270;2023-02-28T06:13:38;9.77;;;6.00;;
801;SDS011;383;48.766;9.270;2023-02-28T06:16:06;7.78;;;5.25;;
801;SDS011;383;48.766;9.270;2023-02-28T06:18:34;8.27;;;5.80;;
801;SDS011;383;48.766;9.270;2023-02-28T06:21:00;13.90;;;5.65;;
801;SDS011;383;48.766;9.270;2023-02-28T06:23:27;12.50;;;5.80;;
801;SDS011;383;48.766;9.270;2023-02-28T06:25:55;16.50;;;6.05;;
801;SDS011;383;48.766;9.270;2023-02-28T06:28:23;9.48;;;5.50;;
801;SDS011;383;48.766;9.270;2023-02-28T06:30:51;9.45;;;5.95;;
801;SDS011;383;48.766;9.270;2023-02-28T06:33:17;18.40;;;8.55;;
801;SDS011;383;48.766;9.270;2023-02-28T06:35:44;9.13;;;6.07;;
801;SDS011;383;48.766;9.270;2023-02-28T06:38:12;9.90;;;6.28;;
801;SDS011;383;48.766;9.270;2023-02-28T06:40:39;9.45;;;6.22;;
801;SDS011;383;48.766;9.270;2023-02-28T06:43:07;14.57;;;7.47;;
801;SDS011;383;48.766;9.270;2023-02-28T06:45:34;11.00;;;6.28;;
801;SDS011;383;48.766;9.270;2023-02-28T06:48:00;12.38;;;6.55;;
801;SDS011;383;48.766;9.270;2023-02-28T06:50:27;15.30;;;6.00;;
801;SDS011;383;48.766;9.270;2023-02-28T06:52:55;9.13;;;6.50;;
801;SDS011;383;48.766;9.270;2023-02-28T06:55:22;14.70;;;7.60;;
801;SDS011;383;48.766;9.270;2023-02-28T06:57:49;12.75;;;7.22;;
801;SDS011;383;48.766;9.270;2023-02-28T07:00:18;12.00;;;6.60;;
801;SDS011;383;48.766;9.270;2023-02-28T07:02:45;13.75;;;7.60;;
801;SDS011;383;48.766;9.270;2023-02-28T07:05:12;10.80;;;6.68;;
801;SDS011;383;48.766;9.270;2023-02-28T07:07:39;13.50;;;6.95;;
801;SDS011;383;48.766;9.270;2023-02-28T07:10:09;14.73;;;6.70;;
801;SDS011;383;48.766;9.270;2023-02-28T07:12:37;11.98;;;6.38;;
801;SDS011;383;48.766;9.270;2023-02-28T07:15:04;13.30;;;6.80;;
801;SDS011;383;48.766;9.270;2023-02-28T07:17:33;10.55;;;6.32;;
801;SDS011;383;48.766;9.270;2023-02-28T07:19:59;16.52;;;6.70;;
801;SDS011;383;48.766;9.270;2023-02-28T07:22:26;12.30;;;7.07;;
801;SDS011;383;48.766;9.270;2023-02-28T07:24:53;10.40;;;7.05;;
801;SDS011;383;48.766;9.270;2023-02-28T07:27:20;14.88;;;7.80;;
801;SDS011;383;48.766;9.270;2023-02-28T07:29:50;12.32;;;6.35;;
801;SDS011;383;48.766;9.270;2023-02-28T07:32:18;11.95;;;6.93;;
801;SDS011;383;48.766;9.270;2023-02-28T07:34:46;13.85;;;6.55;;
801;SDS011;383;48.766;9.270;2023-02-28T07:37:13;11.65;;;6.05;;
801;SDS011;383;48.766;9.270;2023-02-28T07:39:40;14.88;;;7.35;;
801;SDS011;383;48.766;9.270;2023-02-28T07:42:07;17.33;;;8.23;;
801;SDS011;383;48.766;9.270;2023-02-28T07:44:36;13.18;;;7.38;;
801;SDS011;383;48.766;9.270;2023-02-28T07:47:05;14.05;;;7.45;;
801;SDS011;383;48.766;9.270;2023-02-28T07:49:33;14.10;;;6.55;;
801;SDS011;383;48.766;9.270;2023-02-28T07:52:01;14.65;;;6.55;;
801;SDS011;383;48.766;9.270;2023-02-28T07:54:28;15.35;;;6.95;;
801;SDS011;383;48.766;9.270;2023-02-28T07:56:55;11.52;;;6.53;;
801;SDS011;383;48.766;9.270;2023-02-28T07:59:22;15.57;;;6.72;;
801;SDS011;383;48.766;9.270;2023-02-28T08:01:49;16.50;;;7.95;;
801;SDS011;383;48.766;9.270;2023-02-28T08:04:16;14.80;;;7.10;;
801;SDS011;383;48.766;9.270;2023-02-28T08:06:43;12.40;;;6.70;;
801;SDS011;383;48.766;9.270;2023-02-28T08:09:11;16.45;;;7.47;;
801;SDS011;383;48.766;9.270;2023-02-28T08:11:38;17.15;;;8.00;;
801;SDS011;383;48.766;9.270;2023-02-28T08:14:04;10.70;;;7.38;;
801;SDS011;383;48.766;9.270;2023-02-28T08:16:32;13.45;;;7.43;;
801;SDS011;383;48.766;9.270;2023-02-28T08:18:58;18.08;;;8.68;;
801;SDS011;383;48.766;9.270;2023-02-28T08:21:25;16.02;;;8.50;;
801;SDS011;383;48.766;9.270;2023-02-28T08:23:52;12.68;;;7.13;;
801;SDS011;383;48.766;9.270;2023-02-28T08:26:20;17.30;;;8.27;;
801;SDS011;383;48.766;9.270;2023-02-28T08:28:50;16.63;;;8.55;;
801;SDS011;383;48.766;9.270;2023-02-28T08:31:17;15.55;;;8.27;;
801;SDS011;383;48.766;9.270;2023-02-28T08:33:44;18.35;;;7.82;;
801;SDS011;383;48.766;9.270;2023-02-28T08:36:13;17.38;;;7.30;;
801;SDS011;383;48.766;9.270;2023-02-28T08:38:40;19.73;;;8.65;;
801;SDS011;383;48.766;9.270;2023-02-28T08:41:07;14.00;;;8.00;;
801;SDS011;383;48.766;9.270;2023-02-28T08:43:37;20.02;;;10.18;;
801;SDS011;383;48.766;9.270;2023-02-28T08:46:05;15.75;;;8.80;;
801;SDS011;383;48.766;9.270;2023-02-28T08:48:33;14.18;;;7.82;;
801;SDS011;383;48.766;9.270;2023-02-28T08:51:04;14.63;;;7.13;;
801;SDS011;383;48.766;9.270;2023-02-28T08:53:32;13.40;;;7.97;;
801;SDS011;383;48.766;9.270;2023-02-28T08:55:59;21.15;;;7.80;;
801;SDS011;383;48.766;9.270;2023-02-28T08:58:27;13.23;;;6.75;;
801;SDS011;383;48.766;9.270;2023-02-28T09:00:56;21.58;;;8.02;;
801;SDS011;383;48.766;9.270;2023-02-28T09:03:23;15.13;;;7.75;;
801;SDS011;383;48.766;9.270;2023-02-28T09:05:54;16.15;;;7.35;;
801;SDS011;383;48.766;9.270;2023-02-28T09:08:21;12.55;;;6.80;;
801;SDS011;383;48.766;9.270;2023-02-28T09:10:48;12.52;;;7.43;;
801;SDS011;383;48.766;9.270;2023-02-28T09:13:15;16.73;;;8.88;;
801;SDS011;383;48.766;9.270;2023-02-28T09:15:42;11.93;;;7.38;;
801;SDS011;383;48.766;9.270;2023-02-28T09:18:10;16.58;;;7.50;;
801;SDS011;383;48.766;9.270;2023-02-28T09:20:38;15.43;;;8.48;;
801;SDS011;383;48.766;9.270;2023-02-28T09:23:05;19.73;;;8.77;;
801;SDS011;383;48.766;9.270;2023-02-28T09:25:32;16.15;;;8.30;;
801;SDS011;383;48.766;9.270;2023-02-28T09:27:58;15.38;;;7.25;;
801;SDS011;383;48.766;9.270;2023-02-28T09:30:25;17.30;;;8.25;;
801;SDS011;383;48.766;9.270;2023-02-28T09:32:52;19.80;;;8.50;;
801;SDS011;383;48.766;9.270;2023-02-28T09:35:21;19.70;;;9.45;;
801;SDS011;383;48.766;9.270;2023-02-28T09:37:49;17.05;;;9.40;;
801;SDS011;383;48.766;9.270;2023-02-28T09:40:17;19.60;;;8.38;;
801;SDS011;383;48.766;9.270;2023-02-28T09:42:45;16.42;;;8.90;;
801;SDS011;383;48.766;9.270;2023-02-28T09:45:15;17.05;;;9.80;;
801;SDS011;383;48.766;9.270;2023-02-28T09:47:48;18.85;;;8.63;;
801;SDS011;383;48.766;9.270;2023-02-28T09:50:17;14.55;;;7.60;;
801;SDS011;383;48.766;9.270;2023-02-28T09:52:55;15.70;;;7.88;;
801;SDS011;383;48.766;9.270;2023-02-28T09:55:25;19.38;;;8.50;;
801;SDS011;383;48.766;9.270;2023-02-28T09:57:55;21.38;;;9.20;;
801;SDS011;383;48.766;9.270;2023-02-28T10:00:26;17.83;;;8.60;;
801;SDS011;383;48.766;9.270;2023-02-28T10:03:04;13.40;;;7.93;;
801;SDS011;383;48.766;9.270;2023-02-28T10:05:41;14.80;;;9.00;;
801;SDS011;383;48.766;9.270;2023-02-28T10:08:15;18.30;;;8.35;;
801;SDS011;383;48.766;9.270;2023-02-28T10:10:46;13.82;;;7.88;;
801;SDS011;383;48.766;9.270;2023-02-28T10:13:17;15.30;;;8.40;;
801;SDS011;383;48.766;9.270;2023-02-28T10:15:51;16.13;;;8.15;;
801;SDS011;383;48.766;9.270;2023-02-28T10:18:22;12.93;;;8.57;;
801;SDS011;383;48.766;9.270;2023-02-28T10:20:54;18.42;;;9.32;;
801;SDS011;383;48.766;9.270;2023-02-28T10:23:23;13.02;;;8.48;;
801;SDS011;383;48.766;9.270;2023-02-28T10:25:54;15.15;;;8.52;;
801;SDS011;383;48.766;9.270;2023-02-28T10:28:24;15.55;;;8.15;;
801;SDS011;383;48.766;9.270;2023-02-28T10:30:52;20.77;;;8.45;;
801;SDS011;383;48.766;9.270;2023-02-28T10:33:21;20.00;;;8.50;;
801;SDS011;383;48.766;9.270;2023-02-28T10:35:49;17.00;;;7.90;;
801;SDS011;383;48.766;9.270;2023-02-28T10:38:19;17.77;;;9.07;;
801;SDS011;383;48.766;9.270;2023-02-28T10:40:46;15.38;;;8.98;;
801;SDS011;383;48.766;9.270;2023-02-28T10:43:21;23.08;;;8.27;;
801;SDS011;383;48.766;9.270;2023-02-28T10:45:53;16.95;;;9.15;;
801;SDS011;383;48.766;9.270;2023-02-28T10:48:26;15.57;;;9.00;;
801;SDS011;383;48.766;9.270;2023-02-28T10:50:54;16.60;;;8.75;;
801;SDS011;383;48.766;9.270;2023-02-28T10:53:28;15.20;;;9.13;;
801;SDS011;383;48.766;9.270;2023-02-28T10:55:58;20.23;;;8.30;;
801;SDS011;383;48.766;9.270;2023-02-28T10:58:26;22.63;;;9.95;;
801;SDS011;383;48.766;9.270;2023-02-28T11:00:54;21.00;;;9.50;;
801;SDS011;383;48.766;9.270;2023-02-28T11:03:24;16.25;;;8.98;;
801;SDS011;383;48.766;9.270;2023-02-28T11:05:52;21.83;;;9.57;;
801;SDS011;383;48.766;9.270;2023-02-28T11:08:19;15.10;;;8.57;;
801;SDS011;383;48.766;9.270;2023-02-28T11:10:48;17.40;;;9.70;;
801;SDS011;383;48.766;9.270;2023-02-28T11:13:20;21.63;;;9.95;;
801;SDS011;383;48.766;9.270;2023-02-28T11:15:51;18.17;;;10.45;;
801;SDS011;383;48.766;9.270;2023-02-28T11:18:21;13.60;;;7.72;;
801;SDS011;383;48.766;9.270;2023-02-28T11:20:49;16.48;;;8.80;;
801;SDS011;383;48.766;9.270;2023-02-28T11:23:17;14.55;;;8.75;;
801;SDS011;383;48.766;9.270;2023-02-28T11:25:48;12.35;;;8.13;;
801;SDS011;383;48.766;9.270;2023-02-28T11:28:26;18.98;;;9.55;;
801;SDS011;383;48.766;9.270;2023-02-28T11:31:00;14.00;;;7.88;;
801;SDS011;383;48.766;9.270;2023-02-28T11:33:28;17.05;;;9.48;;
801;SDS011;383;48.766;9.270;2023-02-28T11:35:57;17.88;;;8.88;;
801;SDS011;383;48.766;9.270;2023-02-28T11:38:25;15.63;;;8.75;;
801;SDS011;383;48.766;9.270;2023-02-28T11:41:00;16.23;;;9.65;;
801;SDS011;383;48.766;9.270;2023-02-28T11:43:34;15.45;;;8.68;;
801;SDS011;383;48.766;9.270;2023-02-28T11:46:07;13.48;;;8.40;;
801;SDS011;383;48.766;9.270;2023-02-28T11:48:40;15.32;;;8.63;;
801;SDS011;383;48.766;9.270;2023-02-28T11:51:12;15.48;;;8.25;;
801;SDS011;383;48.766;9.270;2023-02-28T11:53:48;18.75;;;9.50;;
801;SDS011;383;48.766;9.270;2023-02-28T11:56:20;20.05;;;9.55;;
801;SDS011;383;48.766;9.270;2023-02-28T11:58:52;19.83;;;9.55;;
801;SDS011;383;48.766;9.270;2023-02-28T12:01:25;17.60;;;9.73;;
801;SDS011;383;48.766;9.270;2023-02-28T12:03:59;15.88;;;9.02;;
801;SDS011;383;48.766;9.270;2023-02-28T12:06:30;12.10;;;8.52;;
801;SDS011;383;48.766;9.270;2023-02-28T12:09:02;11.82;;;8.00;;
801;SDS011;383;48.766;9.270;2023-02-28T12:11:35;14.63;;;8.82;;
801;SDS011;383;48.766;9.270;2023-02-28T12:14:12;16.58;;;8.90;;
801;SDS011;383;48.766;9.270;2023-02-28T12:16:48;14.40;;;9.00;;
801;SDS011;383;48.766;9.270;2023-02-28T12:19:20;17.73;;;9.35;;
801;SDS011;383;48.766;9.270;2023-02-28T12:21:55;14.15;;;8.43;;
801;SDS011;383;48.766;9.270;2023-02-28T12:24:31;15.18;;;9.02;;
801;SDS011;383;48.766;9.270;2023-02-28T12:27:05;22.58;;;9.88;;
801;SDS011;383;48.766;9.270;2023-02-28T12:29:37;16.80;;;8.52;;
801;SDS011;383;48.766;9.270;2023-02-28T12:32:09;19.58;;;10.68;;
801;SDS011;383;48.766;9.270;2023-02-28T12:34:41;16.50;;;9.95;;
801;SDS011;383;48.766;9.270;2023-02-28T12:37:10;15.10;;;9.02;;
801;SDS011;383;48.766;9.270;2023-02-28T12:39:39;18.10;;;8.55;;
801;SDS011;383;48.766;9.270;2023-02-28T12:42:11;23.20;;;10.35;;
801;SDS011;383;48.766;9.270;2023-02-28T12:44:40;16.20;;;9.02;;
801;SDS011;383;48.766;9.270;2023-02-28T12:47:12;15.32;;;9.43;;
801;SDS011;383;48.766;9.270;2023-02-28T12:49:41;20.98;;;11.43;;
801;SDS011;383;48.766;9.270;2023-02-28T12:52:11;14.70;;;9.40;;
801;SDS011;383;48.766;9.270;2023-02-28T12:54:40;14.55;;;8.82;;
801;SDS011;383;48.766;9.270;2023-02-28T12:57:11;17.17;;;9.88;;
801;SDS011;383;48.766;9.270;2023-02-28T12:59:39;14.43;;;8.40;;
801;SDS011;383;48.766;9.270;2023-02-28T13:04:55;17.83;;;9.73;;
801;SDS011;383;48.766;9.270;2023-02-28T13:07:31;18.25;;;10.00;;
801;SDS011;383;48.766;9.270;2023-02-28T13:10:04;20.67;;;10.43;;
801;SDS011;383;48.766;9.270;2023-02-28T13:12:34;16.70;;;8.95;;
801;SDS011;383;48.766;9.270;2023-02-28T13:15:04;14.73;;;8.40;;
801;SDS011;383;48.766;9.270;2023-02-28T13:17:36;16.77;;;9.18;;
801;SDS011;383;48.766;9.270;2023-02-28T13:20:04;18.13;;;10.13;;
801;SDS011;383;48.766;9.270;2023-02-28T13:22:41;21.40;;;10.18;;
801;SDS011;383;48.766;9.270;2023-02-28T13:28:13;21.25;;;10.63;;
801;SDS011;383;48.766;9.270;2023-02-28T13:31:02;16.10;;;8.18;;
801;SDS011;383;48.766;9.270;2023-02-28T13:33:29;14.82;;;9.30;;
801;SDS011;383;48.766;9.270;2023-02-28T13:36:09;17.98;;;9.50;;
801;SDS011;383;48.766;9.270;2023-02-28T13:38:37;16.23;;;9.73;;
801;SDS011;383;48.766;9.270;2023-02-28T13:44:02;20.10;;;10.43;;
801;SDS011;383;48.766;9.270;2023-02-28T13:46:30;18.13;;;9.82;;
801;SDS011;383;48.766;9.270;2023-02-28T13:49:14;15.90;;;9.13;;
801;SDS011;383;48.766;9.270;2023-02-28T13:51:44;18.15;;;9.02;;
801;SDS011;383;48.766;9.270;2023-02-28T13:54:28;16.98;;;8.57;;
801;SDS011;383;48.766;9.270;2023-02-28T13:57:04;17.05;;;9.65;;
801;SDS011;383;48.766;9.270;2023-02-28T13:59:35;15.13;;;8.63;;
801;SDS011;383;48.766;9.270;2023-02-28T14:02:17;14.18;;;8.75;;
801;SDS011;383;48.766;9.270;2023-02-28T14:04:59;13.23;;;8.43;;
801;SDS011;383;48.766;9.270;2023-02-28T14:07:27;17.30;;;9.05;;
801;SDS011;383;48.766;9.270;2023-02-28T14:09:57;14.40;;;8.68;;
801;SDS011;383;48.766;9.270;2023-02-28T14:18:03;16.88;;;9.05;;
801;SDS011;383;48.766;9.270;2023-02-28T14:20:31;14.95;;;8.30;;
801;SDS011;383;48.766;9.270;2023-02-28T14:23:01;14.20;;;8.93;;
801;SDS011;383;48.766;9.270;2023-02-28T14:25:32;24.45;;;11.43;;
801;SDS011;383;48.766;9.270;2023-02-28T14:28:04;13.57;;;8.77;;
801;SDS011;383;48.766;9.270;2023-02-28T14:30:49;13.68;;;7.93;;
801;SDS011;383;48.766;9.270;2023-02-28T14:33:22;16.13;;;9.05;;
801;SDS011;383;48.766;9.270;2023-02-28T14:36:00;13.00;;;8.65;;
801;SDS011;383;48.766;9.270;2023-02-28T14:38:29;12.73;;;7.70;;
801;SDS011;383;48.766;9.270;2023-02-28T14:40:57;17.55;;;10.43;;
801;SDS011;383;48.766;9.270;2023-02-28T14:43:25;12.48;;;8.25;;
801;SDS011;383;48.766;9.270;2023-02-28T14:45:54;14.25;;;9.00;;
801;SDS011;383;48.766;9.270;2023-02-28T14:48:23;17.48;;;8.55;;
801;SDS011;383;48.766;9.270;2023-02-28T14:50:51;20.80;;;9.73;;
801;SDS011;383;48.766;9.270;2023-02-28T14:53:19;14.60;;;8.40;;
801;SDS011;383;48.766;9.270;2023-02-28T14:55:47;14.50;;;8.63;;
801;SDS011;383;48.766;9.270;2023-02-28T14:58:21;20.33;;;9.93;;
801;SDS011;383;48.766;9.270;2023-02-28T15:00:50;14.90;;;8.32;;
801;SDS011;383;48.766;9.270;2023-02-28T15:03:19;16.75;;;7.97;;
801;SDS011;383;48.766;9.270;2023-02-28T15:05:55;15.63;;;8.57;;
801;SDS011;383;48.766;9.270;2023-02-28T15:08:23;14.15;;;8.63;;
801;SDS011;383;48.766;9.270;2023-02-28T15:10:51;16.38;;;9.82;;
801;SDS011;383;48.766;9.270;2023-02-28T15:13:21;15.93;;;8.32;;
801;SDS011;383;48.766;9.270;2023-02-28T15:15:50;14.45;;;8.18;;
801;SDS011;383;48.766;9.270;2023-02-28T15:18:22;16.17;;;9.25;;
801;SDS011;383;48.766;9.270;2023-02-28T15:20:56;13.15;;;8.02;;
801;SDS011;383;48.766;9.270;2023-02-28T15:23:24;14.30;;;8.18;;
801;SDS011;383;48.766;9.270;2023-02-28T15:25:51;18.55;;;10.75;;
801;SDS011;383;48.766;9.270;2023-02-28T15:28:20;14.90;;;8.32;;
801;SDS011;383;48.766;9.270;2023-02-28T15:30:55;14.07;;;8.00;;
801;SDS011;383;48.766;9.270;2023-02-28T15:33:24;13.45;;;8.75;;
801;SDS011;383;48.766;9.270;2023-02-28T15:36:03;18.45;;;9.75;;
801;SDS011;383;48.766;9.270;2023-02-28T15:38:33;20.83;;;9.40;;
801;SDS011;383;48.766;9.270;2023-02-28T15:41:01;13.77;;;9.15;;
801;SDS011;383;48.766;9.270;2023-02-28T15:43:33;15.77;;;9.02;;
801;SDS011;383;48.766;9.270;2023-02-28T15:46:01;15.35;;;9.20;;
801;SDS011;383;48.766;9.270;2023-02-28T15:48:30;15.30;;;9.18;;
801;SDS011;383;48.766;9.270;2023-02-28T15:51:01;18.23;;;9.55;;
801;SDS011;383;48.766;9.270;2023-02-28T15:53:33;17.00;;;9.18;;
801;SDS011;383;48.766;9.270;2023-02-28T15:56:04;17.10;;;9.38;;
801;SDS011;383;48.766;9.270;2023-02-28T15:58:38;16.05;;;9.15;;
801;SDS011;383;48.766;9.270;2023-02-28T16:01:07;15.07;;;8.82;;
801;SDS011;383;48.766;9.270;2023-02-28T16:03:44;19.80;;;10.18;;
801;SDS011;383;48.766;9.270;2023-02-28T16:06:24;21.33;;;9.68;;
801;SDS011;383;48.766;9.270;2023-02-28T16:08:59;17.88;;;9.13;;